Time;durP1;ratioP1;P1;durP2;ratioP2;P2;SDS_P1;SDS_P2;PMS_P1;PMS_P2;Temp;Humidity;BMP_temperature;BMP_pressure;BME280_temperature;BME280_humidity;BME280_pressure;Samples;Min_cycle;Max_cycle;Signal;HPM_P1;HPM_P2
2022/04/15 00:00:08;;;;;;;59.97;25.97;;;;;;;-146.34;100.00;58536.06;5030827;28;20029;-71
2022/04/15 00:02:34;;;;;;;59.27;26.67;;;;;;;-146.34;100.00;58536.06;5029313;28;20036;-72
2022/04/15 00:04:59;;;;;;;54.53;24.03;;;;;;;-146.34;100.00;58536.06;5029861;28;20400;-72
2022/04/15 00:07:25;;;;;;;59.40;26.73;;;;;;;-146.34;100.00;58536.06;5030009;28;20033;-71
2022/04/15 00:09:50;;;;;;;61.07;25.53;;;;;;;-146.34;100.00;58536.06;5030258;28;20028;-72
2022/04/15 00:12:27;;;;;;;52.17;24.20;;;;;;;-146.34;100.00;58536.06;5029607;28;20032;-71
2022/04/15 00:14:54;;;;;;;63.83;24.93;;;;;;;-146.34;100.00;58536.06;5009064;28;20500;-72
2022/04/15 00:17:19;;;;;;;57.83;24.30;;;;;;;-146.34;100.00;58536.06;5011395;28;20029;-72
2022/04/15 00:19:46;;;;;;;57.03;25.17;;;;;;;-146.34;100.00;58536.06;5026470;28;20541;-71
2022/04/15 00:22:12;;;;;;;54.37;24.03;;;;;;;-146.34;100.00;58536.06;5028823;28;20029;-72
2022/04/15 00:24:37;;;;;;;55.80;25.77;;;;;;;-146.34;100.00;58536.06;5049922;28;20126;-72
2022/04/15 00:27:03;;;;;;;56.10;26.07;;;;;;;-146.34;100.00;58536.06;5035544;28;20076;-71
2022/04/15 00:29:28;;;;;;;56.43;24.70;;;;;;;-146.34;100.00;58536.06;5050147;28;20079;-72
2022/04/15 00:31:54;;;;;;;56.53;24.63;;;;;;;-146.34;100.00;58536.06;5035958;28;20147;-72
2022/04/15 00:34:19;;;;;;;52.80;26.50;;;;;;;-146.34;100.00;58536.06;5029823;28;20082;-71
2022/04/15 00:36:45;;;;;;;59.63;27.27;;;;;;;-146.34;100.00;58536.06;5028664;28;20021;-72
2022/04/15 00:39:10;;;;;;;57.83;24.53;;;;;;;-146.34;100.00;58536.06;5030498;28;20397;-72
2022/04/15 00:41:35;;;;;;;51.53;23.37;;;;;;;-146.34;100.00;58536.06;5029417;28;20036;-73
2022/04/15 00:44:01;;;;;;;55.50;25.37;;;;;;;-146.34;100.00;58536.06;5032160;28;20030;-71
2022/04/15 00:46:26;;;;;;;60.53;26.17;;;;;;;-146.34;100.00;58536.06;5042801;28;20032;-72
2022/04/15 00:48:51;;;;;;;51.97;23.67;;;;;;;-146.34;100.00;58536.06;5053197;28;20033;-72
2022/04/15 00:51:17;;;;;;;51.50;25.03;;;;;;;-146.34;100.00;58536.06;5046612;28;20032;-72
2022/04/15 00:53:45;;;;;;;53.27;24.87;;;;;;;-146.34;100.00;58536.06;5035858;28;20120;-72
2022/04/15 00:56:12;;;;;;;58.90;25.93;;;;;;;-146.34;100.00;58536.06;5032622;28;20029;-71
2022/04/15 00:58:39;;;;;;;55.40;24.83;;;;;;;-146.34;100.00;58536.06;5033788;28;20104;-74
2022/04/15 01:01:06;;;;;;;56.83;25.97;;;;;;;-146.34;100.00;58536.06;5033260;28;20051;-72
2022/04/15 01:03:32;;;;;;;60.07;25.17;;;;;;;-146.34;100.00;58536.06;5033060;28;20036;-72
2022/04/15 01:05:59;;;;;;;52.50;23.67;;;;;;;-146.34;100.00;58536.06;5033869;28;20397;-71
2022/04/15 01:08:28;;;;;;;52.40;24.53;;;;;;;-146.34;100.00;58536.06;5031447;28;20040;-72
2022/04/15 01:10:56;;;;;;;56.37;24.50;;;;;;;-146.34;100.00;58536.06;5032552;28;20545;-71
2022/04/15 01:13:24;;;;;;;58.43;24.30;;;;;;;-146.34;100.00;58536.06;5033389;28;20075;-71
2022/04/15 01:15:52;;;;;;;55.70;24.27;;;;;;;-146.34;100.00;58536.06;5032569;28;20052;-72
2022/04/15 01:18:18;;;;;;;59.17;25.37;;;;;;;-146.34;100.00;58536.06;5032085;28;20037;-72
2022/04/15 01:20:50;;;;;;;61.53;25.93;;;;;;;-146.34;100.00;58536.06;5031889;28;20036;-72
2022/04/15 01:23:16;;;;;;;64.72;26.38;;;;;;;-146.34;100.00;58536.06;5015389;28;20050;-71
2022/04/15 01:25:41;;;;;;;57.70;26.43;;;;;;;-146.34;100.00;58536.06;5032014;28;20044;-72
2022/04/15 01:28:07;;;;;;;67.90;26.63;;;;;;;-146.34;100.00;58536.06;5033670;28;20025;-71
2022/04/15 01:30:32;;;;;;;61.00;25.23;;;;;;;-146.34;100.00;58536.06;5031279;28;20393;-72
2022/04/15 01:32:57;;;;;;;70.10;28.20;;;;;;;-146.34;100.00;58536.06;5045319;28;20044;-72
2022/04/15 01:35:23;;;;;;;74.87;28.23;;;;;;;-146.34;100.00;58536.06;5032078;28;20055;-72
2022/04/15 01:37:49;;;;;;;76.10;28.27;;;;;;;-146.34;100.00;58536.06;5031097;28;20029;-72
2022/04/15 01:40:17;;;;;;;77.23;28.97;;;;;;;-146.34;100.00;58536.06;5031748;28;20021;-72
2022/04/15 01:42:44;;;;;;;81.03;28.63;;;;;;;-146.34;100.00;58536.06;5031630;28;20048;-72
2022/04/15 01:45:11;;;;;;;75.50;29.37;;;;;;;-146.34;100.00;58536.06;5033931;28;20029;-72
2022/04/15 01:47:37;;;;;;;71.43;28.80;;;;;;;-146.34;100.00;58536.06;5052735;28;20091;-72
2022/04/15 01:50:05;;;;;;;84.37;30.90;;;;;;;-146.34;100.00;58536.06;5038244;28;20142;-71
2022/04/15 01:52:30;;;;;;;73.97;29.07;;;;;;;-146.34;100.00;58536.06;5031941;28;20042;-72
2022/04/15 01:54:55;;;;;;;75.13;29.13;;;;;;;-146.34;100.00;58536.06;5032308;28;20040;-72
2022/04/15 01:57:21;;;;;;;58.60;25.57;;;;;;;-146.34;100.00;58536.06;5032435;28;20029;-72
2022/04/15 01:59:46;;;;;;;57.03;23.90;;;;;;;-146.34;100.00;58536.06;5030796;28;20089;-72
2022/04/15 02:02:12;;;;;;;48.00;22.77;;;;;;;-146.34;100.00;58536.06;5028494;28;20056;-72
2022/04/15 02:04:37;;;;;;;54.07;22.93;;;;;;;-146.34;100.00;58536.06;5040326;28;20076;-72
2022/04/15 02:07:03;;;;;;;42.80;20.63;;;;;;;-146.34;100.00;58536.06;5031775;28;20120;-72
2022/04/15 02:09:32;;;;;;;55.70;21.90;;;;;;;-146.34;100.00;58536.06;5031459;28;20151;-72
2022/04/15 02:11:57;;;;;;;53.77;22.13;;;;;;;-146.34;100.00;58536.06;5031922;28;20029;-72
2022/04/15 02:14:23;;;;;;;59.77;22.50;;;;;;;-146.34;100.00;58536.06;5032626;28;20025;-72
2022/04/15 02:16:52;;;;;;;52.40;21.57;;;;;;;-146.34;100.00;58536.06;5032371;28;20087;-72
2022/04/15 02:19:17;;;;;;;60.63;22.80;;;;;;;-146.34;100.00;58536.06;5031779;28;20487;-72
2022/04/15 02:21:42;;;;;;;58.07;21.63;;;;;;;-146.34;100.00;58536.06;5030494;28;20040;-72
2022/04/15 02:24:08;;;;;;;66.93;23.23;;;;;;;-146.34;100.00;58536.06;5032370;28;20053;-72
2022/04/15 02:26:33;;;;;;;56.37;22.20;;;;;;;-146.34;100.00;58536.06;5030337;28;20037;-72
2022/04/15 02:28:59;;;;;;;49.33;20.37;;;;;;;-146.34;100.00;58536.06;5030690;28;20036;-72
2022/04/15 02:31:24;;;;;;;45.37;19.33;;;;;;;-146.34;100.00;58536.06;5031938;28;20068;-72
2022/04/15 02:33:50;;;;;;;36.33;18.23;;;;;;;-146.34;100.00;58536.06;5029734;28;20179;-72
2022/04/15 02:36:16;;;;;;;34.23;16.50;;;;;;;-146.34;100.00;58536.06;5032352;28;20032;-71
2022/04/15 02:38:42;;;;;;;32.73;16.57;;;;;;;-146.34;100.00;58536.06;5031758;28;20032;-72
2022/04/15 02:41:08;;;;;;;29.63;14.70;;;;;;;-146.34;100.00;58536.06;5029530;28;20029;-71
2022/04/15 02:43:37;;;;;;;28.60;13.50;;;;;;;-146.34;100.00;58536.06;5035081;28;20025;-72
2022/04/15 02:46:04;;;;;;;24.67;13.43;;;;;;;-146.34;100.00;58536.06;5034309;28;20066;-72
2022/04/15 02:48:30;;;;;;;20.07;11.47;;;;;;;-146.34;100.00;58536.06;5030745;28;20052;-72
2022/04/15 02:50:56;;;;;;;21.43;12.60;;;;;;;-146.34;100.00;58536.06;5029779;28;20025;-72
2022/04/15 02:53:22;;;;;;;25.87;13.33;;;;;;;-146.34;100.00;58536.06;5027090;28;20033;-72
2022/04/15 02:55:48;;;;;;;25.50;13.07;;;;;;;-146.34;100.00;58536.06;5033740;28;20035;-72
2022/04/15 02:58:13;;;;;;;23.33;13.17;;;;;;;-146.34;100.00;58536.06;5030340;28;20420;-72
2022/04/15 03:00:38;;;;;;;22.17;12.17;;;;;;;-146.34;100.00;58536.06;5027924;28;20490;-72
2022/04/15 03:03:04;;;;;;;22.93;11.77;;;;;;;-146.34;100.00;58536.06;5031397;28;20025;-72
2022/04/15 03:05:30;;;;;;;20.53;11.37;;;;;;;-146.34;100.00;58536.06;5031052;28;20509;-72
2022/04/15 03:07:55;;;;;;;23.73;11.60;;;;;;;-146.34;100.00;58536.06;5030623;28;20033;-72
2022/04/15 03:10:21;;;;;;;26.10;12.53;;;;;;;-146.34;100.00;58536.06;5031219;28;20030;-71
2022/04/15 03:12:47;;;;;;;28.70;13.07;;;;;;;-146.34;100.00;58536.06;5043005;28;20075;-72
2022/04/15 03:15:13;;;;;;;25.93;14.47;;;;;;;-146.34;100.00;58536.06;5030394;28;20021;-72
2022/04/15 03:17:38;;;;;;;29.63;14.20;;;;;;;-146.34;100.00;58536.06;5031056;28;20118;-71
2022/04/15 03:20:06;;;;;;;28.70;13.17;;;;;;;-146.34;100.00;58536.06;5029575;28;20033;-72
2022/04/15 03:22:36;;;;;;;22.03;12.97;;;;;;;-146.34;100.00;58536.06;5010599;28;20029;-72
2022/04/15 03:25:02;;;;;;;25.03;12.00;;;;;;;-146.34;100.00;58536.06;5012931;28;20114;-71
2022/04/15 03:27:27;;;;;;;18.83;11.10;;;;;;;-146.34;100.00;58536.06;5031521;28;20116;-72
2022/04/15 03:29:53;;;;;;;21.97;11.23;;;;;;;-146.34;100.00;58536.06;5027808;28;20104;-72
2022/04/15 03:32:18;;;;;;;21.50;11.20;;;;;;;-146.34;100.00;58536.06;5029976;28;20444;-72
2022/04/15 03:34:43;;;;;;;20.10;12.90;;;;;;;-146.34;100.00;58536.06;5030371;28;20481;-71
2022/04/15 03:37:09;;;;;;;25.93;13.57;;;;;;;-146.34;100.00;58536.06;5029013;28;20550;-72
2022/04/15 03:39:35;;;;;;;22.57;11.87;;;;;;;-146.34;100.00;58536.06;5029270;28;20031;-72
2022/04/15 03:42:01;;;;;;;22.93;11.10;;;;;;;-146.34;100.00;58536.06;5026693;28;20038;-72
2022/04/15 03:44:27;;;;;;;19.60;11.50;;;;;;;-146.34;100.00;58536.06;5030124;28;20032;-72
2022/04/15 03:46:52;;;;;;;23.43;13.50;;;;;;;-146.34;100.00;58536.06;5029031;28;20032;-72
2022/04/15 03:49:18;;;;;;;31.27;16.87;;;;;;;-146.34;100.00;58536.06;5029356;28;20029;-72
2022/04/15 03:51:43;;;;;;;37.10;17.97;;;;;;;-146.34;100.00;58536.06;5029537;28;20044;-72
2022/04/15 03:54:08;;;;;;;28.27;15.60;;;;;;;-146.34;100.00;58536.06;5029540;28;20068;-72
2022/04/15 03:56:34;;;;;;;28.37;12.67;;;;;;;-146.34;100.00;58536.06;5031026;28;20425;-72
2022/04/15 03:58:59;;;;;;;23.77;11.63;;;;;;;-146.34;100.00;58536.06;5029158;28;20434;-72
2022/04/15 04:01:25;;;;;;;18.80;10.47;;;;;;;-146.34;100.00;58536.06;5028927;28;20037;-72
2022/04/15 04:03:53;;;;;;;21.43;11.17;;;;;;;-146.34;100.00;58536.06;5028836;28;20052;-72
2022/04/15 04:06:19;;;;;;;27.03;13.03;;;;;;;-146.34;100.00;58536.06;5029230;28;20040;-72
2022/04/15 04:08:49;;;;;;;26.23;14.37;;;;;;;-146.34;100.00;58536.06;5034813;28;20033;-72
2022/04/15 04:11:16;;;;;;;29.13;15.07;;;;;;;-146.34;100.00;58536.06;5030578;28;20159;-72
2022/04/15 04:13:42;;;;;;;26.40;14.20;;;;;;;-146.34;100.00;58536.06;5030079;28;20470;-72
2022/04/15 04:16:07;;;;;;;29.27;14.77;;;;;;;-146.34;100.00;58536.06;5030383;28;20116;-72
2022/04/15 04:18:32;;;;;;;20.90;12.37;;;;;;;-146.34;100.00;58536.06;5029072;28;20025;-73
2022/04/15 04:20:58;;;;;;;18.47;11.23;;;;;;;-146.34;100.00;58536.06;5034747;28;20037;-72
2022/04/15 04:23:23;;;;;;;24.40;13.10;;;;;;;-146.34;100.00;58536.06;5029133;28;20053;-73
2022/04/15 04:25:48;;;;;;;22.07;12.00;;;;;;;-146.34;100.00;58536.06;5028153;28;20060;-73
2022/04/15 04:28:14;;;;;;;20.47;11.37;;;;;;;-146.34;100.00;58536.06;5030733;28;20041;-73
2022/04/15 04:30:39;;;;;;;25.77;13.37;;;;;;;-146.34;100.00;58536.06;5029669;28;20039;-73
2022/04/15 04:33:05;;;;;;;28.67;15.40;;;;;;;-146.34;100.00;58536.06;5029164;28;20025;-73
2022/04/15 04:35:30;;;;;;;25.73;14.67;;;;;;;-146.34;100.00;58536.06;5044885;28;20104;-73
2022/04/15 04:37:56;;;;;;;21.67;11.83;;;;;;;-146.34;100.00;58536.06;5030414;28;20366;-73
2022/04/15 04:40:21;;;;;;;21.73;11.83;;;;;;;-146.34;100.00;58536.06;5029094;28;20030;-73
2022/04/15 04:42:47;;;;;;;21.60;12.30;;;;;;;-146.34;100.00;58536.06;5029983;28;20080;-73
2022/04/15 04:45:13;;;;;;;18.80;11.17;;;;;;;-146.34;100.00;58536.06;5030700;28;20032;-72
2022/04/15 04:47:41;;;;;;;15.97;8.23;;;;;;;-146.34;100.00;58536.06;5029097;28;20030;-72
2022/04/15 04:50:08;;;;;;;15.20;8.30;;;;;;;-146.34;100.00;58536.06;5034701;28;20028;-72
2022/04/15 04:52:35;;;;;;;14.80;8.90;;;;;;;-146.34;100.00;58536.06;5028458;28;20125;-72
2022/04/15 04:55:02;;;;;;;19.27;11.07;;;;;;;-146.34;100.00;58536.06;5027144;28;20025;-72
2022/04/15 04:57:27;;;;;;;20.57;10.40;;;;;;;-146.34;100.00;58536.06;5029510;28;20430;-72
2022/04/15 04:59:52;;;;;;;17.80;9.83;;;;;;;-146.34;100.00;58536.06;5026938;28;20071;-72
2022/04/15 05:02:17;;;;;;;21.27;9.60;;;;;;;-146.34;100.00;58536.06;5028928;28;20061;-72
2022/04/15 05:04:43;;;;;;;19.57;8.47;;;;;;;-146.34;100.00;58536.06;5029532;28;20531;-72
2022/04/15 05:07:08;;;;;;;18.77;9.67;;;;;;;-146.34;100.00;58536.06;5029125;28;20477;-72
2022/04/15 05:09:33;;;;;;;17.90;9.13;;;;;;;-146.34;100.00;58536.06;5029906;28;20517;-72
2022/04/15 05:11:59;;;;;;;19.97;9.63;;;;;;;-146.34;100.00;58536.06;5029522;28;20039;-72
2022/04/15 05:14:24;;;;;;;18.63;9.20;;;;;;;-146.34;100.00;58536.06;5029377;28;20034;-72
2022/04/15 05:16:50;;;;;;;14.30;9.10;;;;;;;-146.34;100.00;58536.06;5036543;28;20021;-72
2022/04/15 05:19:15;;;;;;;18.00;8.80;;;;;;;-146.34;100.00;58536.06;5045518;28;20025;-72
2022/04/15 05:21:40;;;;;;;17.30;9.03;;;;;;;-146.34;100.00;58536.06;5028327;28;20033;-72
2022/04/15 05:24:09;;;;;;;14.30;7.90;;;;;;;-146.34;100.00;58536.06;5029904;28;20053;-73
2022/04/15 05:26:38;;;;;;;16.83;9.23;;;;;;;-146.34;100.00;58536.06;5029390;28;20541;-72
2022/04/15 05:29:04;;;;;;;16.60;7.80;;;;;;;-146.34;100.00;58536.06;5030745;28;20081;-73
2022/04/15 05:31:29;;;;;;;18.80;8.47;;;;;;;-146.34;100.00;58536.06;5033711;28;20453;-73
2022/04/15 05:33:55;;;;;;;13.40;6.80;;;;;;;-146.34;100.00;58536.06;5031863;28;20128;-73
2022/04/15 05:36:20;;;;;;;13.90;7.60;;;;;;;-146.34;100.00;58536.06;5032771;28;20472;-73
2022/04/15 05:38:45;;;;;;;10.53;6.83;;;;;;;-146.34;100.00;58536.06;5032773;28;20057;-72
2022/04/15 05:41:11;;;;;;;16.77;7.50;;;;;;;-146.34;100.00;58536.06;5032389;28;20025;-73
2022/04/15 05:43:37;;;;;;;14.60;8.23;;;;;;;-146.34;100.00;58536.06;5031641;28;20025;-73
2022/04/15 05:46:03;;;;;;;16.53;8.27;;;;;;;-146.34;100.00;58536.06;5033314;28;20435;-73
2022/04/15 05:48:28;;;;;;;12.90;7.63;;;;;;;-146.34;100.00;58536.06;5031687;28;20037;-72
2022/04/15 05:50:53;;;;;;;14.33;7.63;;;;;;;-146.34;100.00;58536.06;5032002;28;20025;-73
2022/04/15 05:53:19;;;;;;;14.43;8.33;;;;;;;-146.34;100.00;58536.06;5032929;28;20075;-72
2022/04/15 05:55:44;;;;;;;14.23;7.87;;;;;;;-146.34;100.00;58536.06;5033692;28;20465;-73
2022/04/15 05:58:10;;;;;;;14.30;7.13;;;;;;;-146.34;100.00;58536.06;5049744;28;20469;-73
2022/04/15 06:00:39;;;;;;;12.20;7.43;;;;;;;-146.34;100.00;58536.06;5032787;28;20385;-73
2022/04/15 06:03:04;;;;;;;12.30;6.87;;;;;;;-146.34;100.00;58536.06;5032781;28;20056;-73
2022/04/15 06:05:30;;;;;;;13.83;7.50;;;;;;;-146.34;100.00;58536.06;5032458;28;20470;-73
2022/04/15 06:07:56;;;;;;;12.73;7.53;;;;;;;-146.34;100.00;58536.06;5030474;28;20027;-73
2022/04/15 06:10:21;;;;;;;14.37;7.10;;;;;;;-146.34;100.00;58536.06;5032101;28;20393;-73
2022/04/15 06:13:04;;;;;;;16.93;8.03;;;;;;;-146.34;100.00;58536.06;5041374;28;20029;-73
2022/04/15 06:15:32;;;;;;;14.52;7.80;;;;;;;-146.34;100.00;58536.06;5033040;28;20107;-73
2022/04/15 06:17:59;;;;;;;13.33;7.70;;;;;;;-146.34;100.00;58536.06;5030881;28;20427;-72
2022/04/15 06:20:25;;;;;;;11.87;6.57;;;;;;;-146.34;100.00;58536.06;5014862;28;20389;-73
2022/04/15 06:22:51;;;;;;;13.37;7.00;;;;;;;-146.34;100.00;58536.06;5031814;28;20026;-73
2022/04/15 06:25:16;;;;;;;10.63;5.80;;;;;;;-146.34;100.00;58536.06;5031979;28;20099;-73
2022/04/15 06:27:42;;;;;;;11.93;6.07;;;;;;;-146.34;100.00;58536.06;5030035;28;20030;-73
2022/04/15 06:30:08;;;;;;;9.83;5.80;;;;;;;-146.34;100.00;58536.06;5038077;28;20021;-73
2022/04/15 06:32:37;;;;;;;13.30;6.17;;;;;;;-146.34;100.00;58536.06;5033030;28;20060;-73
2022/04/15 06:35:03;;;;;;;11.70;6.70;;;;;;;-146.34;100.00;58536.06;5021004;28;20108;-73
2022/04/15 06:37:32;;;;;;;14.00;6.30;;;;;;;-146.34;100.00;58536.06;5032351;28;20075;-73
2022/04/15 06:39:58;;;;;;;13.77;6.57;;;;;;;-146.34;100.00;58536.06;5030727;28;20022;-74
2022/04/15 06:42:28;;;;;;;9.67;5.47;;;;;;;-146.34;100.00;58536.06;5031890;28;20072;-73
2022/04/15 06:44:54;;;;;;;8.73;5.60;;;;;;;-146.34;100.00;58536.06;5032378;28;20045;-72
2022/04/15 06:47:19;;;;;;;7.57;5.30;;;;;;;-146.34;100.00;58536.06;5041474;28;20036;-73
2022/04/15 06:49:46;;;;;;;11.13;5.57;;;;;;;-146.34;100.00;58536.06;5051837;28;20535;-73
2022/04/15 06:52:13;;;;;;;10.93;6.23;;;;;;;-146.34;100.00;58536.06;5037566;28;20030;-74
2022/04/15 06:54:39;;;;;;;9.20;5.60;;;;;;;-146.34;100.00;58536.06;5026193;28;20084;-73
2022/04/15 06:57:05;;;;;;;11.20;6.20;;;;;;;-146.34;100.00;58536.06;5032189;28;20053;-73
2022/04/15 06:59:30;;;;;;;9.53;5.83;;;;;;;-146.34;100.00;58536.06;5029910;28;20080;-73
2022/04/15 07:01:56;;;;;;;8.93;5.87;;;;;;;-146.34;100.00;58536.06;5031417;28;20060;-73
2022/04/15 07:04:23;;;;;;;10.43;4.83;;;;;;;-146.34;100.00;58536.06;5030969;28;20485;-73
2022/04/15 07:06:49;;;;;;;8.43;5.37;;;;;;;-146.34;100.00;58536.06;5029018;28;20631;-73
2022/04/15 07:09:14;;;;;;;9.67;5.47;;;;;;;-146.34;100.00;58536.06;5038857;28;20047;-74
2022/04/15 07:11:39;;;;;;;9.80;5.07;;;;;;;-146.34;100.00;58536.06;5033727;28;23314;-74
2022/04/15 07:14:05;;;;;;;6.67;4.90;;;;;;;-146.34;100.00;58536.06;5028745;28;20052;-73
2022/04/15 07:16:31;;;;;;;9.00;4.60;;;;;;;-146.34;100.00;58536.06;5021289;28;20076;-73
2022/04/15 07:18:57;;;;;;;10.27;5.60;;;;;;;-146.34;100.00;58536.06;5029741;28;20064;-73
2022/04/15 07:21:22;;;;;;;11.27;4.50;;;;;;;-146.34;100.00;58536.06;5013643;28;20049;-74
2022/04/15 07:23:48;;;;;;;5.97;4.53;;;;;;;-146.34;100.00;58536.06;5029070;28;20049;-74
2022/04/15 07:26:14;;;;;;;10.93;4.40;;;;;;;-146.34;100.00;58536.06;5031009;28;20463;-74
2022/04/15 07:28:39;;;;;;;5.10;3.53;;;;;;;-146.34;100.00;58536.06;5028852;28;20025;-74
2022/04/15 07:31:05;;;;;;;8.00;4.03;;;;;;;-146.34;100.00;58536.06;5030491;28;20052;-74
2022/04/15 07:33:30;;;;;;;6.83;3.37;;;;;;;-146.34;100.00;58536.06;5041197;28;20029;-73
2022/04/15 07:35:56;;;;;;;4.40;3.20;;;;;;;-146.34;100.00;58536.06;5049164;28;20439;-73
2022/04/15 07:38:21;;;;;;;6.57;3.63;;;;;;;-146.34;100.00;58536.06;5048960;28;20038;-74
2022/04/15 07:40:46;;;;;;;9.87;3.67;;;;;;;-146.34;100.00;58536.06;5029585;28;20032;-74
2022/04/15 07:43:12;;;;;;;6.80;3.00;;;;;;;-146.34;100.00;58536.06;5029110;28;20491;-74
2022/04/15 07:45:37;;;;;;;4.47;2.93;;;;;;;-146.34;100.00;58536.06;5035105;28;20021;-74
2022/04/15 07:48:02;;;;;;;5.33;2.90;;;;;;;-146.34;100.00;58536.06;5032556;28;20029;-74
2022/04/15 07:50:28;;;;;;;3.30;3.00;;;;;;;-146.34;100.00;58536.06;5030337;28;20037;-74
2022/04/15 07:52:58;;;;;;;5.47;3.00;;;;;;;-146.34;100.00;58536.06;5045952;28;20120;-74
2022/04/15 07:55:25;;;;;;;4.57;3.10;;;;;;;-146.34;100.00;58536.06;5029870;28;20035;-74
2022/04/15 07:57:50;;;;;;;7.72;3.38;;;;;;;-146.34;100.00;58536.06;5028398;28;20022;-73
2022/04/15 08:00:16;;;;;;;4.45;3.25;;;;;;;-146.34;100.00;58536.06;5029634;28;20029;-74
2022/04/15 08:02:41;;;;;;;5.63;3.00;;;;;;;-146.34;100.00;58536.06;5028543;28;20029;-73
2022/04/15 08:05:07;;;;;;;4.80;2.85;;;;;;;-146.34;100.00;58536.06;5031238;28;20025;-73
2022/04/15 08:07:33;;;;;;;4.45;2.80;;;;;;;-146.34;100.00;58536.06;5029814;28;20359;-73
2022/04/15 08:09:58;;;;;;;7.07;2.75;;;;;;;-146.34;100.00;58536.06;5029747;28;20025;-73
2022/04/15 08:12:23;;;;;;;5.53;2.75;;;;;;;-146.34;100.00;58536.06;5029929;28;20041;-74
2022/04/15 08:14:49;;;;;;;6.20;2.83;;;;;;;-146.34;100.00;58536.06;5029192;28;20202;-73
2022/04/15 08:17:14;;;;;;;2.92;2.40;;;;;;;-146.34;100.00;58536.06;5030407;28;20025;-73
2022/04/15 08:19:40;;;;;;;2.55;2.28;;;;;;;-146.34;100.00;58536.06;5030253;28;20030;-73
2022/04/15 08:22:09;;;;;;;7.85;2.55;;;;;;;-146.34;100.00;58536.06;5032119;28;20044;-74
2022/04/15 08:24:42;;;;;;;6.78;2.00;;;;;;;-146.34;100.00;58536.06;5029919;28;20045;-74
2022/04/15 08:27:08;;;;;;;7.05;2.20;;;;;;;-146.34;100.00;58536.06;5029494;28;20021;-74
2022/04/15 08:29:38;;;;;;;6.88;2.42;;;;;;;-146.34;100.00;58536.06;4984171;28;20111;-73
2022/04/15 08:32:05;;;;;;;4.28;2.35;;;;;;;-146.34;100.00;58536.06;5038821;28;20025;-73
2022/04/15 08:34:30;;;;;;;3.53;2.17;;;;;;;-146.34;100.00;58536.06;5046901;28;20112;-73
2022/04/15 08:36:56;;;;;;;5.80;2.30;;;;;;;-146.34;100.00;58536.06;5029959;28;20557;-73
2022/04/15 08:39:21;;;;;;;3.47;2.08;;;;;;;-146.34;100.00;58536.06;5029567;28;20029;-74
2022/04/15 08:41:47;;;;;;;3.47;2.00;;;;;;;-146.34;100.00;58536.06;5029683;28;20308;-74
2022/04/15 08:44:13;;;;;;;3.28;2.45;;;;;;;-146.34;100.00;58536.06;5029164;28;20021;-74
2022/04/15 08:46:38;;;;;;;3.13;2.00;;;;;;;-146.34;100.00;58536.06;5030417;28;20033;-74
2022/04/15 08:49:05;;;;;;;3.15;2.28;;;;;;;-146.34;100.00;58536.06;5029816;28;20026;-74
2022/04/15 08:51:34;;;;;;;5.25;2.05;;;;;;;-146.34;100.00;58536.06;5030096;28;20035;-74
2022/04/15 08:54:00;;;;;;;4.60;2.67;;;;;;;-146.34;100.00;58536.06;5029175;28;20029;-74
2022/04/15 08:56:25;;;;;;;3.67;1.80;;;;;;;-146.34;100.00;58536.06;5029593;28;20040;-74
2022/04/15 08:58:50;;;;;;;3.40;1.98;;;;;;;-146.34;100.00;58536.06;5029040;28;20477;-74
2022/04/15 09:01:16;;;;;;;4.47;1.90;;;;;;;-146.34;100.00;58536.06;5030196;28;20025;-74
2022/04/15 09:03:42;;;;;;;2.42;1.95;;;;;;;-146.34;100.00;58536.06;5050017;28;20020;-74
2022/04/15 09:06:15;;;;;;;4.03;2.60;;;;;;;-146.34;100.00;58536.06;5034725;28;20079;-73
2022/04/15 09:08:59;;;;;;;7.07;2.85;;;;;;;-146.34;100.00;58536.06;5032303;28;20496;-74
2022/04/15 09:11:48;;;;;;;4.57;2.30;;;;;;;-146.34;100.00;58536.06;5032665;28;20040;-74
2022/04/15 09:14:14;;;;;;;4.28;2.45;;;;;;;-146.34;100.00;58536.06;5037630;28;20161;-74
2022/04/15 09:16:45;;;;;;;3.80;2.70;;;;;;;-146.34;100.00;58536.06;5032621;28;20472;-73
2022/04/15 09:19:11;;;;;;;2.58;2.00;;;;;;;-146.34;100.00;58536.06;5032793;28;20029;-74
2022/04/15 09:21:38;;;;;;;4.00;2.28;;;;;;;-146.34;100.00;58536.06;5032435;28;20052;-74
2022/04/15 09:24:04;;;;;;;4.45;2.38;;;;;;;-146.34;100.00;58536.06;5032600;28;20049;-74
2022/04/15 09:26:30;;;;;;;2.58;2.00;;;;;;;-146.34;100.00;58536.06;5014552;28;20140;-73
2022/04/15 09:28:55;;;;;;;7.03;2.13;;;;;;;-146.34;100.00;58536.06;5012116;28;20060;-73
2022/04/15 09:31:23;;;;;;;3.80;2.30;;;;;;;-146.34;100.00;58536.06;5030280;28;20037;-73
2022/04/15 09:33:59;;;;;;;9.68;2.72;;;;;;;-146.34;100.00;58536.06;5031005;28;20037;-72
2022/04/15 09:36:36;;;;;;;5.30;2.47;;;;;;;-146.34;100.00;58536.06;5030211;28;20029;-71
2022/04/15 09:39:10;;;;;;;4.10;2.17;;;;;;;-146.34;100.00;58536.06;5031893;28;20033;-72
2022/04/15 09:41:40;;;;;;;2.38;2.15;;;;;;;-146.34;100.00;58536.06;5031981;28;20108;-71
2022/04/15 09:44:06;;;;;;;2.60;2.10;;;;;;;-146.34;100.00;58536.06;5033355;28;20040;-71
2022/04/15 09:46:32;;;;;;;2.30;2.10;;;;;;;-146.34;100.00;58536.06;5030577;28;20033;-71
2022/04/15 09:49:08;;;;;;;4.93;2.38;;;;;;;-146.34;100.00;58536.06;5034099;28;20497;-72
2022/04/15 09:51:48;;;;;;;4.82;2.45;;;;;;;-146.34;100.00;58536.06;5033020;28;20033;-72
2022/04/15 09:54:28;;;;;;;3.25;2.00;;;;;;;-146.34;100.00;58536.06;5040567;28;20040;-72
2022/04/15 09:56:58;;;;;;;4.10;2.00;;;;;;;-146.34;100.00;58536.06;5028900;28;20024;-72
2022/04/15 09:59:26;;;;;;;5.05;1.98;;;;;;;-146.34;100.00;58536.06;5030111;28;20147;-72
2022/04/15 10:02:02;;;;;;;3.47;1.90;;;;;;;-146.34;100.00;58536.06;4989518;28;20029;-73
2022/04/15 10:04:28;;;;;;;3.78;1.90;;;;;;;-146.34;100.00;58536.06;4985109;28;20348;-71
2022/04/15 10:06:54;;;;;;;3.53;1.80;;;;;;;-146.34;100.00;58536.06;5022639;28;20112;-72
2022/04/15 10:09:21;;;;;;;3.45;2.03;;;;;;;-146.34;100.00;58536.06;5027644;28;20446;-72
2022/04/15 10:11:48;;;;;;;3.00;2.28;;;;;;;-146.34;100.00;58536.06;5024603;28;20033;-72
2022/04/15 10:14:16;;;;;;;1.95;1.85;;;;;;;-146.34;100.00;58536.06;5015703;28;20033;-72
2022/04/15 10:16:43;;;;;;;4.32;2.10;;;;;;;-146.34;100.00;58536.06;5029218;28;20113;-72
2022/04/15 10:19:10;;;;;;;6.15;2.00;;;;;;;-146.34;100.00;58536.06;5030864;28;20040;-72
2022/04/15 10:21:40;;;;;;;4.05;1.92;;;;;;;-146.34;100.00;58536.06;5031974;28;20032;-72
2022/04/15 10:24:08;;;;;;;2.10;1.90;;;;;;;-146.34;100.00;58536.06;5034918;28;20049;-72
2022/04/15 10:26:45;;;;;;;2.60;1.67;;;;;;;-146.34;100.00;58536.06;5033359;28;20044;-72
2022/04/15 10:29:11;;;;;;;2.22;1.67;;;;;;;-146.34;100.00;58536.06;5037676;28;20041;-72
2022/04/15 10:31:44;;;;;;;2.45;1.75;;;;;;;-146.34;100.00;58536.06;5022446;28;20037;-72
2022/04/15 10:34:15;;;;;;;2.17;1.30;;;;;;;-146.34;100.00;58536.06;5023344;28;20122;-72
2022/04/15 10:36:45;;;;;;;4.18;1.70;;;;;;;-146.34;100.00;58536.06;5019157;28;20501;-72
2022/04/15 10:39:12;;;;;;;1.40;1.30;;;;;;;-146.34;100.00;58536.06;5031313;28;20063;-72
2022/04/15 10:41:44;;;;;;;2.25;1.65;;;;;;;-146.34;100.00;58536.06;5028344;28;20039;-73
2022/04/15 10:44:27;;;;;;;1.60;1.50;;;;;;;-146.34;100.00;58536.06;5030708;28;20045;-73
2022/04/15 10:46:52;;;;;;;3.35;1.60;;;;;;;-146.34;100.00;58536.06;5025371;28;20045;-73
2022/04/15 10:49:23;;;;;;;2.45;1.70;;;;;;;-146.34;100.00;58536.06;5030680;28;20458;-73
2022/04/15 10:51:52;;;;;;;4.25;1.75;;;;;;;-146.34;100.00;58536.06;5031008;28;20524;-73
2022/04/15 10:54:30;;;;;;;2.72;1.55;;;;;;;-146.34;100.00;58536.06;5033447;28;20112;-73
2022/04/15 10:57:03;;;;;;;3.25;1.80;;;;;;;-146.34;100.00;58536.06;5049552;28;20029;-73
2022/04/15 11:02:22;;;;;;;4.00;1.80;;;;;;;-146.34;100.00;58536.06;5043392;28;20098;-73